sensor_id;sensor_type;location;lat;lon;timestamp;temperature;humidity
73875;HTU21D;62209;47.568;7.558;2023-06-26T00:03:01;20.69;90.63
73875;HTU21D;62209;47.568;7.558;2023-06-26T00:18:07;20.61;90.63
73875;HTU21D;62209;47.568;7.558;2023-06-26T00:33:12;20.51;90.66
73875;HTU21D;62209;47.568;7.558;2023-06-26T00:48:18;20.26;90.63
73875;HTU21D;62209;47.568;7.558;2023-06-26T01:03:24;20.06;90.00
73875;HTU21D;62209;47.568;7.558;2023-06-26T01:18:30;20.00;90.45
73875;HTU21D;62209;47.568;7.558;2023-06-26T01:33:37;19.91;89.45
73875;HTU21D;62209;47.568;7.558;2023-06-26T01:48:47;19.74;89.15
73875;HTU21D;62209;47.568;7.558;2023-06-26T02:04:01;19.60;89.80
73875;HTU21D;62209;47.568;7.558;2023-06-26T02:19:07;19.44;90.63
73875;HTU21D;62209;47.568;7.558;2023-06-26T02:34:13;19.30;89.65
73875;HTU21D;62209;47.568;7.558;2023-06-26T02:49:18;19.23;88.49
73875;HTU21D;62209;47.568;7.558;2023-06-26T03:04:25;19.23;87.80
73875;HTU21D;62209;47.568;7.558;2023-06-26T03:19:31;19.05;87.72
73875;HTU21D;62209;47.568;7.558;2023-06-26T03:34:37;19.02;88.86
73875;HTU21D;62209;47.568;7.558;2023-06-26T03:49:42;18.87;89.78
73875;HTU21D;62209;47.568;7.558;2023-06-26T04:04:48;18.82;92.04
73875;HTU21D;62209;47.568;7.558;2023-06-26T04:19:55;18.91;91.85
73875;HTU21D;62209;47.568;7.558;2023-06-26T04:35:01;19.18;91.60
73875;HTU21D;62209;47.568;7.558;2023-06-26T04:50:07;19.54;89.83
73875;HTU21D;62209;47.568;7.558;2023-06-26T05:05:13;20.16;88.18
73875;HTU21D;62209;47.568;7.558;2023-06-26T05:20:18;20.92;85.64
73875;HTU21D;62209;47.568;7.558;2023-06-26T05:35:24;21.66;83.19
73875;HTU21D;62209;47.568;7.558;2023-06-26T05:50:33;22.72;80.68
73875;HTU21D;62209;47.568;7.558;2023-06-26T06:05:40;24.20;79.24
73875;HTU21D;62209;47.568;7.558;2023-06-26T06:20:46;25.03;75.66
73875;HTU21D;62209;47.568;7.558;2023-06-26T06:35:51;26.01;74.17
73875;HTU21D;62209;47.568;7.558;2023-06-26T06:50:57;26.96;70.98
73875;HTU21D;62209;47.568;7.558;2023-06-26T07:06:03;27.27;70.52
73875;HTU21D;62209;47.568;7.558;2023-06-26T07:21:09;29.22;66.33
73875;HTU21D;62209;47.568;7.558;2023-06-26T07:36:14;29.86;65.83
73875;HTU21D;62209;47.568;7.558;2023-06-26T07:51:20;30.65;64.37
73875;HTU21D;62209;47.568;7.558;2023-06-26T08:06:27;28.00;70.66
73875;HTU21D;62209;47.568;7.558;2023-06-26T08:21:32;29.77;68.57
73875;HTU21D;62209;47.568;7.558;2023-06-26T08:36:38;30.37;66.63
73875;HTU21D;62209;47.568;7.558;2023-06-26T08:51:45;29.86;67.20
73875;HTU21D;62209;47.568;7.558;2023-06-26T09:06:56;30.09;66.26
73875;HTU21D;62209;47.568;7.558;2023-06-26T09:22:02;29.53;65.77
73875;HTU21D;62209;47.568;7.558;2023-06-26T09:37:08;30.39;67.63
73875;HTU21D;62209;47.568;7.558;2023-06-26T09:52:18;28.90;70.35
73875;HTU21D;62209;47.568;7.558;2023-06-26T10:07:24;27.44;71.35
73875;HTU21D;62209;47.568;7.558;2023-06-26T10:22:32;27.02;72.14
73875;HTU21D;62209;47.568;7.558;2023-06-26T10:37:42;26.99;72.03
73875;HTU21D;62209;47.568;7.558;2023-06-26T11:08:22;27.11;72.61
73875;HTU21D;62209;47.568;7.558;2023-06-26T11:23:51;27.78;72.50
73875;HTU21D;62209;47.568;7.558;2023-06-26T11:39:02;27.27;71.56
73875;HTU21D;62209;47.568;7.558;2023-06-26T11:54:09;29.04;66.91
73875;HTU21D;62209;47.568;7.558;2023-06-26T12:09:17;29.01;66.40
73875;HTU21D;62209;47.568;7.558;2023-06-26T12:24:24;29.75;64.65
73875;HTU21D;62209;47.568;7.558;2023-06-26T12:39:44;29.22;66.50
73875;HTU21D;62209;47.568;7.558;2023-06-26T12:54:53;30.56;63.21
73875;HTU21D;62209;47.568;7.558;2023-06-26T13:09:59;29.46;63.63
73875;HTU21D;62209;47.568;7.558;2023-06-26T13:25:06;30.55;63.08
73875;HTU21D;62209;47.568;7.558;2023-06-26T13:40:15;30.66;62.64
73875;HTU21D;62209;47.568;7.558;2023-06-26T13:55:21;29.58;62.75
73875;HTU21D;62209;47.568;7.558;2023-06-26T14:10:27;29.50;63.53
73875;HTU21D;62209;47.568;7.558;2023-06-26T14:25:33;28.82;63.41
73875;HTU21D;62209;47.568;7.558;2023-06-26T14:40:39;29.43;63.50
73875;HTU21D;62209;47.568;7.558;2023-06-26T14:55:46;29.20;62.67
73875;HTU21D;62209;47.568;7.558;2023-06-26T15:10:51;28.85;62.37
73875;HTU21D;62209;47.568;7.558;2023-06-26T15:25:57;28.82;61.79
73875;HTU21D;62209;47.568;7.558;2023-06-26T15:41:03;28.89;61.14
73875;HTU21D;62209;47.568;7.558;2023-06-26T15:56:09;28.62;61.66
73875;HTU21D;62209;47.568;7.558;2023-06-26T16:11:18;28.43;61.78
73875;HTU21D;62209;47.568;7.558;2023-06-26T16:26:25;28.41;60.93
73875;HTU21D;62209;47.568;7.558;2023-06-26T16:41:31;28.01;62.40
73875;HTU21D;62209;47.568;7.558;2023-06-26T16:56:36;27.69;61.98
73875;HTU21D;62209;47.568;7.558;2023-06-26T17:11:43;27.35;63.37
73875;HTU21D;62209;47.568;7.558;2023-06-26T17:26:49;26.82;63.45
73875;HTU21D;62209;47.568;7.558;2023-06-26T17:41:54;26.43;63.74
73875;HTU21D;62209;47.568;7.558;2023-06-26T17:57:00;26.32;64.21
73875;HTU21D;62209;47.568;7.558;2023-06-26T18:12:06;26.22;66.07
73875;HTU21D;62209;47.568;7.558;2023-06-26T18:27:13;25.74;68.47
73875;HTU21D;62209;47.568;7.558;2023-06-26T18:42:18;25.14;69.62
73875;HTU21D;62209;47.568;7.558;2023-06-26T18:57:24;24.65;69.19
73875;HTU21D;62209;47.568;7.558;2023-06-26T19:12:30;24.18;72.67
73875;HTU21D;62209;47.568;7.558;2023-06-26T19:27:35;23.60;76.17
73875;HTU21D;62209;47.568;7.558;2023-06-26T19:42:42;22.88;76.35
73875;HTU21D;62209;47.568;7.558;2023-06-26T19:57:48;22.58;77.11
73875;HTU21D;62209;47.568;7.558;2023-06-26T20:12:55;22.06;77.11
73875;HTU21D;62209;47.568;7.558;2023-06-26T20:28:01;21.77;79.27
73875;HTU21D;62209;47.568;7.558;2023-06-26T20:43:07;21.50;80.20
73875;HTU21D;62209;47.568;7.558;2023-06-26T20:58:13;21.10;80.35
73875;HTU21D;62209;47.568;7.558;2023-06-26T21:13:19;21.31;78.25
73875;HTU21D;62209;47.568;7.558;2023-06-26T21:28:25;21.34;76.83
73875;HTU21D;62209;47.568;7.558;2023-06-26T21:43:30;21.09;78.04
73875;HTU21D;62209;47.568;7.558;2023-06-26T21:58:36;20.94;76.37
73875;HTU21D;62209;47.568;7.558;2023-06-26T22:13:42;21.03;74.54
73875;HTU21D;62209;47.568;7.558;2023-06-26T22:28:47;20.69;76.54
73875;HTU21D;62209;47.568;7.558;2023-06-26T22:43:53;20.25;77.98
73875;HTU21D;62209;47.568;7.558;2023-06-26T22:58:59;20.10;77.98
73875;HTU21D;62209;47.568;7.558;2023-06-26T23:14:04;19.84;79.98
73875;HTU21D;62209;47.568;7.558;2023-06-26T23:29:11;19.17;82.80
73875;HTU21D;62209;47.568;7.558;2023-06-26T23:44:21;18.86;83.13
73875;HTU21D;62209;47.568;7.558;2023-06-26T23:59:26;18.51;84.80
